Time,TemperatureF,DewpointF,PressureIn,WindDirection,WindDirectionDegrees,WindSpeedMPH,WindSpeedGustMPH,Humidity,HourlyPrecipIn,Conditions,Clouds,dailyrainin,SoftwareType,DateUTC
2013-08-31 00:01:00,63.6,58.7,29.97,SSW,202,0.0,0.0,84,0.00,,,0.00,WeatherTracker,2013-08-31 07:01:00,
2013-08-31 09:55:00,64.3,58.0,30.00,SE,137,0.0,0.0,80,0.00,,,0.00,WeatherTracker,2013-08-31 16:55:00,
2013-08-31 10:00:00,64.7,58.4,30.00,SSE,148,1.0,0.0,80,0.00,,,0.00,WeatherTracker,2013-08-31 17:00:00,
2013-08-31 10:05:00,65.2,58.5,30.00,SSE,154,2.0,0.0,79,0.00,,,0.00,WeatherTracker,2013-08-31 17:05:00,
2013-08-31 10:10:00,65.7,58.6,30.00,WSW,241,0.0,0.0,78,0.00,,,0.00,WeatherTracker,2013-08-31 17:10:00,
2013-08-31 10:15:00,66.1,58.7,30.00,SE,146,0.0,0.0,77,0.00,,,0.00,WeatherTracker,2013-08-31 17:15:00,
2013-08-31 10:20:00,66.6,59.2,30.00,SE,145,0.0,0.0,77,0.00,,,0.00,WeatherTracker,2013-08-31 17:20:00,
2013-08-31 10:26:00,67.2,59.0,30.00,South,187,2.0,0.0,75,0.00,,,0.00,WeatherTracker,2013-08-31 17:26:00,
2013-08-31 10:31:00,67.6,59.0,30.00,SW,233,3.0,0.0,74,0.00,,,0.00,WeatherTracker,2013-08-31 17:31:00,
2013-08-31 10:36:00,67.1,59.3,30.00,SSE,155,1.0,0.0,76,0.00,,,0.00,WeatherTracker,2013-08-31 17:36:00,
2013-08-31 10:41:00,67.5,58.9,30.00,SW,227,5.0,0.0,74,0.00,,,0.00,WeatherTracker,2013-08-31 17:41:00,
2013-08-31 10:46:00,67.2,59.4,30.00,WSW,251,2.0,0.0,76,0.00,,,0.00,WeatherTracker,2013-08-31 17:46:00,
2013-08-31 10:51:00,66.9,58.7,30.00,WSW,237,2.0,0.0,75,0.00,,,0.00,WeatherTracker,2013-08-31 17:51:00,
2013-08-31 10:56:00,66.1,58.3,30.00,WSW,257,3.0,0.0,76,0.00,,,0.00,WeatherTracker,2013-08-31 17:56:00,
2013-08-31 11:01:00,66.1,58.7,30.00,SW,236,1.0,0.0,77,0.00,,,0.00,WeatherTracker,2013-08-31 18:01:00,
2013-08-31 11:06:00,66.6,59.2,30.00,WSW,249,3.0,0.0,77,0.00,,,0.00,WeatherTracker,2013-08-31 18:06:00,
2013-08-31 11:11:00,66.8,58.6,30.00,SW,225,0.0,0.0,75,0.00,,,0.00,WeatherTracker,2013-08-31 18:11:00,
2013-08-31 11:16:00,66.8,59.4,30.00,WSW,245,5.0,0.0,77,0.00,,,0.00,WeatherTracker,2013-08-31 18:16:00,
2013-08-31 11:21:00,66.5,58.7,30.00,SW,229,3.0,0.0,76,0.00,,,0.00,WeatherTracker,2013-08-31 18:21:00,
2013-08-31 11:26:00,66.9,59.1,30.00,WSW,248,3.0,0.0,76,0.00,,,0.00,WeatherTracker,2013-08-31 18:26:00,
2013-08-31 11:31:00,66.9,59.1,30.00,WSW,256,1.0,0.0,76,0.00,,,0.00,WeatherTracker,2013-08-31 18:31:00,
2013-08-31 11:36:00,67.1,58.9,30.00,WSW,241,5.0,0.0,75,0.00,,,0.00,WeatherTracker,2013-08-31 18:36:00,
2013-08-31 11:41:00,66.7,59.3,30.00,SW,228,8.0,0.0,77,0.00,,,0.00,WeatherTracker,2013-08-31 18:41:00,
2013-08-31 11:47:00,66.6,59.2,30.00,WSW,246,3.0,0.0,77,0.00,,,0.00,WeatherTracker,2013-08-31 18:47:00,
2013-08-31 11:52:00,66.5,59.4,30.00,WSW,251,7.0,0.0,78,0.00,,,0.00,WeatherTracker,2013-08-31 18:52:00,
2013-08-31 11:57:00,66.5,59.4,30.00,WSW,256,4.0,0.0,78,0.00,,,0.00,WeatherTracker,2013-08-31 18:57:00,
2013-08-31 12:02:00,66.8,59.4,30.00,West,260,2.0,0.0,77,0.00,,,0.00,WeatherTracker,2013-08-31 19:02:00,
2013-08-31 12:07:00,67.4,59.2,30.00,WSW,252,1.0,0.0,75,0.00,,,0.00,WeatherTracker,2013-08-31 19:07:00,
2013-08-31 12:12:00,68.6,59.6,30.00,SW,233,5.0,0.0,73,0.00,,,0.00,WeatherTracker,2013-08-31 19:12:00,
2013-08-31 12:17:00,67.6,59.8,30.00,WSW,256,2.0,0.0,76,0.00,,,0.00,WeatherTracker,2013-08-31 19:17:00,
2013-08-31 12:22:00,67.9,60.0,30.00,West,276,2.0,0.0,76,0.00,,,0.00,WeatherTracker,2013-08-31 19:22:00,
2013-08-31 12:27:00,67.8,60.0,30.00,NW,304,1.0,0.0,76,0.00,,,0.00,WeatherTracker,2013-08-31 19:27:00,
2013-08-31 12:32:00,68.0,60.1,30.00,WSW,250,11.0,0.0,76,0.00,,,0.00,WeatherTracker,2013-08-31 19:32:00,
2013-08-31 12:37:00,68.6,60.7,30.00,WNW,286,3.0,0.0,76,0.00,,,0.00,WeatherTracker,2013-08-31 19:37:00,
2013-08-31 12:42:00,68.0,60.1,30.00,West,268,3.0,0.0,76,0.00,,,0.00,WeatherTracker,2013-08-31 19:42:00,
2013-08-31 12:47:00,68.8,60.5,30.00,WSW,257,2.0,0.0,75,0.00,,,0.00,WeatherTracker,2013-08-31 19:47:00,
2013-08-31 12:52:00,69.3,60.3,30.00,SW,226,1.0,0.0,73,0.00,,,0.00,WeatherTracker,2013-08-31 19:52:00,
2013-08-31 12:57:00,69.4,60.7,29.99,NW,315,4.0,0.0,74,0.00,,,0.00,WeatherTracker,2013-08-31 19:57:00,
2013-08-31 13:02:00,69.2,60.9,29.99,WSW,245,2.0,0.0,75,0.00,,,0.00,WeatherTracker,2013-08-31 20:02:00,
2013-08-31 13:07:00,68.8,60.5,29.99,WNW,285,2.0,0.0,75,0.00,,,0.00,WeatherTracker,2013-08-31 20:07:00,
2013-08-31 13:12:00,68.6,60.4,29.99,WSW,241,4.0,0.0,75,0.00,,,0.00,WeatherTracker,2013-08-31 20:12:00,
2013-08-31 13:17:00,68.6,60.7,29.99,WNW,287,3.0,0.0,76,0.00,,,0.00,WeatherTracker,2013-08-31 20:17:00,
2013-08-31 13:22:00,68.7,60.4,29.99,WSW,240,5.0,0.0,75,0.00,,,0.00,WeatherTracker,2013-08-31 20:22:00,
2013-08-31 13:28:00,68.0,60.5,29.99,NW,304,2.0,0.0,77,0.00,,,0.00,WeatherTracker,2013-08-31 20:28:00,
2013-08-31 13:33:00,67.9,60.0,29.99,WSW,238,4.0,0.0,76,0.00,,,0.00,WeatherTracker,2013-08-31 20:33:00,
2013-08-31 13:38:00,67.5,59.7,29.98,West,263,5.0,0.0,76,0.00,,,0.00,WeatherTracker,2013-08-31 20:38:00,
2013-08-31 13:43:00,67.8,60.7,29.98,SW,230,0.0,0.0,78,0.00,,,0.00,WeatherTracker,2013-08-31 20:43:00,
2013-08-31 13:48:00,68.5,60.6,29.99,SW,236,5.0,0.0,76,0.00,,,0.00,WeatherTracker,2013-08-31 20:48:00,
2013-08-31 13:53:00,69.3,61.0,29.98,West,259,4.0,0.0,75,0.00,,,0.00,WeatherTracker,2013-08-31 20:53:00,
2013-08-31 13:58:00,68.8,60.5,29.98,SW,232,5.0,0.0,75,0.00,,,0.00,WeatherTracker,2013-08-31 20:58:00,
2013-08-31 14:03:00,69.2,60.9,29.98,WSW,244,5.0,0.0,75,0.00,,,0.00,WeatherTracker,2013-08-31 21:03:00,
2013-08-31 14:08:00,69.2,60.6,29.98,WSW,244,3.0,0.0,74,0.00,,,0.00,WeatherTracker,2013-08-31 21:08:00,
2013-08-31 14:13:00,69.2,60.6,29.98,SW,232,10.0,0.0,74,0.00,,,0.00,WeatherTracker,2013-08-31 21:13:00,
2013-08-31 14:18:00,69.5,61.2,29.98,SW,222,5.0,0.0,75,0.00,,,0.00,WeatherTracker,2013-08-31 21:18:00,
2013-08-31 14:23:00,68.6,60.4,29.98,SW,227,6.0,0.0,75,0.00,,,0.00,WeatherTracker,2013-08-31 21:23:00,
2013-08-31 14:28:00,68.5,60.6,29.98,WSW,246,2.0,0.0,76,0.00,,,0.00,WeatherTracker,2013-08-31 21:28:00,
2013-08-31 14:33:00,69.4,61.1,29.97,West,273,4.0,0.0,75,0.00,,,0.00,WeatherTracker,2013-08-31 21:33:00,
2013-08-31 14:38:00,69.2,60.6,29.97,WSW,250,6.0,0.0,74,0.00,,,0.00,WeatherTracker,2013-08-31 21:38:00,
2013-08-31 14:43:00,68.9,60.3,29.97,SW,229,0.0,0.0,74,0.00,,,0.00,WeatherTracker,2013-08-31 21:43:00,
2013-08-31 14:48:00,69.4,60.4,29.97,WSW,240,4.0,0.0,73,0.00,,,0.00,WeatherTracker,2013-08-31 21:48:00,
2013-08-31 14:53:00,68.2,60.3,29.97,WSW,248,5.0,0.0,76,0.00,,,0.00,WeatherTracker,2013-08-31 21:53:00,
2013-08-31 14:58:00,68.6,60.4,29.97,West,261,3.0,0.0,75,0.00,,,0.00,WeatherTracker,2013-08-31 21:58:00,
2013-08-31 15:03:00,68.6,60.7,29.97,WSW,253,4.0,0.0,76,0.00,,,0.00,WeatherTracker,2013-08-31 22:03:00,
2013-08-31 15:08:00,68.5,60.3,29.96,WSW,237,3.0,0.0,75,0.00,,,0.00,WeatherTracker,2013-08-31 22:08:00,
2013-08-31 15:14:00,69.0,61.1,29.96,West,260,1.0,0.0,76,0.00,,,0.00,WeatherTracker,2013-08-31 22:14:00,
2013-08-31 15:19:00,69.9,60.8,29.96,SW,234,2.0,0.0,73,0.00,,,0.00,WeatherTracker,2013-08-31 22:19:00,
2013-08-31 15:24:00,70.5,61.0,29.96,SW,223,2.0,0.0,72,0.00,,,0.00,WeatherTracker,2013-08-31 22:24:00,
2013-08-31 15:29:00,70.0,61.3,29.96,WSW,256,2.0,0.0,74,0.00,,,0.00,WeatherTracker,2013-08-31 22:29:00,
2013-08-31 15:34:00,70.1,61.8,29.96,WSW,254,0.0,0.0,75,0.00,,,0.00,WeatherTracker,2013-08-31 22:34:00,
2013-08-31 15:39:00,70.1,61.0,29.96,West,269,3.0,0.0,73,0.00,,,0.00,WeatherTracker,2013-08-31 22:39:00,
2013-08-31 15:44:00,69.4,60.4,29.95,WSW,237,2.0,0.0,73,0.00,,,0.00,WeatherTracker,2013-08-31 22:44:00,
2013-08-31 15:49:00,69.6,61.3,29.95,SW,225,5.0,0.0,75,0.00,,,0.00,WeatherTracker,2013-08-31 22:49:00,
2013-08-31 15:54:00,70.0,61.3,29.95,SW,236,1.0,0.0,74,0.00,,,0.00,WeatherTracker,2013-08-31 22:54:00,
2013-08-31 15:59:00,69.5,60.8,29.95,WSW,251,2.0,0.0,74,0.00,,,0.00,WeatherTracker,2013-08-31 22:59:00,
2013-08-31 16:04:00,68.8,60.5,29.95,WSW,237,5.0,0.0,75,0.00,,,0.00,WeatherTracker,2013-08-31 23:04:00,
2013-08-31 16:09:00,68.5,60.3,29.95,WSW,237,0.0,0.0,75,0.00,,,0.00,WeatherTracker,2013-08-31 23:09:00,
2013-08-31 16:14:00,68.5,61.0,29.94,West,279,3.0,0.0,77,0.00,,,0.00,WeatherTracker,2013-08-31 23:14:00,
2013-08-31 16:19:00,68.8,60.9,29.95,West,265,7.0,0.0,76,0.00,,,0.00,WeatherTracker,2013-08-31 23:19:00,
2013-08-31 16:24:00,67.7,60.9,29.94,SW,234,4.0,0.0,79,0.00,,,0.00,WeatherTracker,2013-08-31 23:24:00,
2013-08-31 16:29:00,67.3,60.9,29.94,SW,218,9.0,0.0,80,0.00,,,0.00,WeatherTracker,2013-08-31 23:29:00,
2013-08-31 16:34:00,67.5,60.8,29.93,WSW,256,5.0,0.0,79,0.00,,,0.00,WeatherTracker,2013-08-31 23:34:00,
2013-08-31 16:39:00,66.6,60.6,29.93,WSW,238,11.0,0.0,81,0.00,,,0.00,WeatherTracker,2013-08-31 23:39:00,
2013-08-31 16:44:00,66.8,61.1,29.93,WSW,245,3.0,0.0,82,0.00,,,0.00,WeatherTracker,2013-08-31 23:44:00,
2013-08-31 16:50:00,67.6,61.2,29.93,WSW,248,4.0,0.0,80,0.00,,,0.00,WeatherTracker,2013-08-31 23:50:00,
2013-08-31 16:55:00,66.8,60.4,29.93,WSW,254,4.0,0.0,80,0.00,,,0.00,WeatherTracker,2013-08-31 23:55:00,
2013-08-31 17:00:00,67.2,61.2,29.93,WSW,253,6.0,0.0,81,0.00,,,0.00,WeatherTracker,2013-09-01 00:00:00,
2013-08-31 17:05:00,67.1,60.4,29.93,SW,226,3.0,0.0,79,0.00,,,0.00,WeatherTracker,2013-09-01 00:05:00,
2013-08-31 17:10:00,67.0,60.6,29.93,WSW,248,9.0,0.0,80,0.00,,,0.00,WeatherTracker,2013-09-01 00:10:00,
2013-08-31 17:15:00,67.3,60.6,29.93,WSW,240,6.0,0.0,79,0.00,,,0.00,WeatherTracker,2013-09-01 00:15:00,
2013-08-31 17:20:00,66.7,60.3,29.93,West,261,2.0,0.0,80,0.00,,,0.00,WeatherTracker,2013-09-01 00:20:00,
2013-08-31 17:25:00,66.4,60.0,29.93,SW,227,3.0,0.0,80,0.00,,,0.00,WeatherTracker,2013-09-01 00:25:00,
2013-08-31 17:30:00,66.6,60.2,29.93,SW,236,2.0,0.0,80,0.00,,,0.00,WeatherTracker,2013-09-01 00:30:00,
2013-08-31 17:35:00,66.5,60.5,29.93,South,182,3.0,0.0,81,0.00,,,0.00,WeatherTracker,2013-09-01 00:35:00,
2013-08-31 17:40:00,66.5,60.1,29.93,SW,232,6.0,0.0,80,0.00,,,0.00,WeatherTracker,2013-09-01 00:40:00,
2013-08-31 17:45:00,67.3,60.6,29.93,South,184,0.0,0.0,79,0.00,,,0.00,WeatherTracker,2013-09-01 00:45:00,
2013-08-31 17:50:00,67.4,60.3,29.93,WSW,241,5.0,0.0,78,0.00,,,0.00,WeatherTracker,2013-09-01 00:50:00,
2013-08-31 17:55:00,67.1,60.0,29.93,WSW,258,5.0,0.0,78,0.00,,,0.00,WeatherTracker,2013-09-01 00:55:00,
2013-08-31 18:00:00,66.9,59.8,29.93,WSW,257,2.0,0.0,78,0.00,,,0.00,WeatherTracker,2013-09-01 01:00:00,
2013-08-31 18:05:00,66.7,60.0,29.93,WSW,242,0.0,0.0,79,0.00,,,0.00,WeatherTracker,2013-09-01 01:05:00,
2013-08-31 18:10:00,66.8,60.1,29.93,WSW,244,3.0,0.0,79,0.00,,,0.00,WeatherTracker,2013-09-01 01:10:00,
2013-08-31 18:15:00,66.8,60.1,29.93,West,268,3.0,0.0,79,0.00,,,0.00,WeatherTracker,2013-09-01 01:15:00,
2013-08-31 18:20:00,66.7,60.0,29.93,West,261,4.0,0.0,79,0.00,,,0.00,WeatherTracker,2013-09-01 01:20:00,
2013-08-31 18:25:00,66.5,59.8,29.93,SSE,166,0.0,0.0,79,0.00,,,0.00,WeatherTracker,2013-09-01 01:25:00,
2013-08-31 18:30:00,66.4,59.7,29.93,SW,217,4.0,0.0,79,0.00,,,0.00,WeatherTracker,2013-09-01 01:30:00,
2013-08-31 18:35:00,66.3,59.6,29.92,SSW,201,2.0,0.0,79,0.00,,,0.00,WeatherTracker,2013-09-01 01:35:00,
2013-08-31 18:40:00,66.0,59.3,29.92,WSW,248,6.0,0.0,79,0.00,,,0.00,WeatherTracker,2013-09-01 01:40:00,
2013-08-31 18:45:00,65.6,59.3,29.92,WSW,250,3.0,0.0,80,0.00,,,0.00,WeatherTracker,2013-09-01 01:45:00,
2013-08-31 18:50:00,65.3,59.3,29.92,SSW,213,0.0,0.0,81,0.00,,,0.00,WeatherTracker,2013-09-01 01:50:00,
2013-08-31 18:55:00,65.1,59.1,29.92,SW,234,2.0,0.0,81,0.00,,,0.00,WeatherTracker,2013-09-01 01:55:00,
2013-08-31 19:01:00,64.6,58.6,29.93,WSW,254,2.0,0.0,81,0.00,,,0.00,WeatherTracker,2013-09-01 02:01:00,
2013-08-31 19:06:00,64.1,58.5,29.93,WSW,256,0.0,0.0,82,0.00,,,0.00,WeatherTracker,2013-09-01 02:06:00,
2013-08-31 19:11:00,63.6,58.3,29.93,West,261,4.0,0.0,83,0.00,,,0.00,WeatherTracker,2013-09-01 02:11:00,
2013-08-31 19:16:00,63.1,58.2,29.92,WSW,240,2.0,0.0,84,0.00,,,0.00,WeatherTracker,2013-09-01 02:16:00,
2013-08-31 19:21:00,62.9,58.3,29.93,WSW,252,5.0,0.0,85,0.00,,,0.00,WeatherTracker,2013-09-01 02:21:00,
2013-08-31 19:26:00,62.6,58.0,29.93,WSW,240,2.0,0.0,85,0.00,,,0.00,WeatherTracker,2013-09-01 02:26:00,
2013-08-31 19:31:00,62.5,58.3,29.93,WSW,240,0.0,0.0,86,0.00,,,0.00,WeatherTracker,2013-09-01 02:31:00,
2013-08-31 19:36:00,62.4,58.2,29.93,West,260,5.0,0.0,86,0.00,,,0.00,WeatherTracker,2013-09-01 02:36:00,
2013-08-31 19:41:00,62.3,58.1,29.93,WSW,256,0.0,0.0,86,0.00,,,0.00,WeatherTracker,2013-09-01 02:41:00,
2013-08-31 19:46:00,62.2,58.3,29.93,WSW,256,0.0,0.0,87,0.00,,,0.00,WeatherTracker,2013-09-01 02:46:00,
2013-08-31 19:51:00,62.2,58.3,29.93,WSW,256,0.0,0.0,87,0.00,,,0.00,WeatherTracker,2013-09-01 02:51:00,
2013-08-31 19:56:00,62.1,58.2,29.93,WSW,256,0.0,0.0,87,0.00,,,0.00,WeatherTracker,2013-09-01 02:56:00,
2013-08-31 20:01:00,62.1,58.2,29.93,WSW,256,0.0,0.0,87,0.00,,,0.00,WeatherTracker,2013-09-01 03:01:00,
2013-08-31 20:06:00,62.1,58.5,29.93,WSW,248,5.0,0.0,88,0.00,,,0.00,WeatherTracker,2013-09-01 03:06:00,
2013-08-31 20:11:00,62.2,58.6,29.93,WSW,242,2.0,0.0,88,0.00,,,0.00,WeatherTracker,2013-09-01 03:11:00,
2013-08-31 20:16:00,62.2,58.6,29.93,WSW,244,1.0,0.0,88,0.00,,,0.00,WeatherTracker,2013-09-01 03:16:00,
2013-08-31 20:21:00,62.2,58.6,29.93,WSW,240,3.0,0.0,88,0.00,,,0.00,WeatherTracker,2013-09-01 03:21:00,
2013-08-31 20:26:00,62.2,58.6,29.94,WSW,240,4.0,0.0,88,0.00,,,0.00,WeatherTracker,2013-09-01 03:26:00,
2013-08-31 20:31:00,62.2,58.6,29.94,SW,236,0.0,0.0,88,0.00,,,0.00,WeatherTracker,2013-09-01 03:31:00,
2013-08-31 20:36:00,62.2,58.6,29.93,West,263,0.0,0.0,88,0.00,,,0.00,WeatherTracker,2013-09-01 03:36:00,
2013-08-31 20:41:00,62.1,58.5,29.94,WSW,248,2.0,0.0,88,0.00,,,0.00,WeatherTracker,2013-09-01 03:41:00,
2013-08-31 20:46:00,62.1,58.5,29.94,WSW,251,5.0,0.0,88,0.00,,,0.00,WeatherTracker,2013-09-01 03:46:00,
2013-08-31 20:51:00,62.0,58.4,29.94,WSW,251,0.0,0.0,88,0.00,,,0.00,WeatherTracker,2013-09-01 03:51:00,
2013-08-31 20:56:00,61.9,58.3,29.94,WSW,252,2.0,0.0,88,0.00,,,0.00,WeatherTracker,2013-09-01 03:56:00,
2013-08-31 21:01:00,61.7,58.1,29.94,WSW,241,3.0,0.0,88,0.00,,,0.00,WeatherTracker,2013-09-01 04:01:00,
2013-08-31 21:03:00,61.7,58.1,29.94,WSW,242,4.0,0.0,88,0.00,,,0.00,WeatherTracker,2013-09-01 04:03:00,
2013-08-31 21:08:00,61.5,57.9,29.94,WSW,242,1.0,0.0,88,0.00,,,0.00,WeatherTracker,2013-09-01 04:08:00,
2013-08-31 21:13:00,61.5,57.9,29.94,West,263,0.0,0.0,88,0.00,,,0.00,WeatherTracker,2013-09-01 04:13:00,
2013-08-31 21:18:00,61.5,58.2,29.95,West,263,2.0,0.0,89,0.00,,,0.00,WeatherTracker,2013-09-01 04:18:00,
2013-08-31 21:23:00,61.5,58.2,29.94,West,263,0.0,0.0,89,0.00,,,0.00,WeatherTracker,2013-09-01 04:23:00,
2013-08-31 21:28:00,61.4,58.1,29.95,WSW,258,3.0,0.0,89,0.00,,,0.00,WeatherTracker,2013-09-01 04:28:00,
2013-08-31 21:33:00,61.4,58.1,29.95,WSW,247,1.0,0.0,89,0.00,,,0.00,WeatherTracker,2013-09-01 04:33:00,
2013-08-31 21:38:00,61.4,58.1,29.95,WSW,254,0.0,0.0,89,0.00,,,0.00,WeatherTracker,2013-09-01 04:38:00,
2013-08-31 21:43:00,61.3,58.0,29.95,WSW,258,2.0,0.0,89,0.00,,,0.00,WeatherTracker,2013-09-01 04:43:00,
2013-08-31 21:48:00,61.3,58.0,29.95,SSW,213,2.0,0.0,89,0.00,,,0.00,WeatherTracker,2013-09-01 04:48:00,
2013-08-31 21:53:00,61.3,58.0,29.95,WSW,248,1.0,0.0,89,0.00,,,0.00,WeatherTracker,2013-09-01 04:53:00,
2013-08-31 21:58:00,61.2,57.9,29.95,WSW,250,2.0,0.0,89,0.00,,,0.00,WeatherTracker,2013-09-01 04:58:00,
2013-08-31 22:04:00,61.1,57.8,29.95,WSW,253,3.0,0.0,89,0.00,,,0.00,WeatherTracker,2013-09-01 05:04:00,
2013-08-31 22:09:00,61.0,57.7,29.96,WSW,242,2.0,0.0,89,0.00,,,0.00,WeatherTracker,2013-09-01 05:09:00,
2013-08-31 22:14:00,60.9,57.6,29.96,WSW,241,4.0,0.0,89,0.00,,,0.00,WeatherTracker,2013-09-01 05:14:00,
2013-08-31 22:19:00,60.8,57.5,29.96,West,260,1.0,0.0,89,0.00,,,0.00,WeatherTracker,2013-09-01 05:19:00,
2013-08-31 22:24:00,60.7,57.4,29.96,SW,219,0.0,0.0,89,0.00,,,0.00,WeatherTracker,2013-09-01 05:24:00,
2013-08-31 22:29:00,60.5,57.2,29.96,West,259,2.0,0.0,89,0.00,,,0.00,WeatherTracker,2013-09-01 05:29:00,
2013-08-31 22:34:00,60.4,57.1,29.96,WSW,257,2.0,0.0,89,0.00,,,0.00,WeatherTracker,2013-09-01 05:34:00,
2013-08-31 22:39:00,60.2,56.9,29.96,West,267,2.0,0.0,89,0.00,,,0.00,WeatherTracker,2013-09-01 05:39:00,
2013-08-31 22:44:00,60.2,56.9,29.97,West,269,2.0,0.0,89,0.00,,,0.00,WeatherTracker,2013-09-01 05:44:00,
2013-08-31 22:49:00,60.1,56.8,29.97,WSW,253,1.0,0.0,89,0.00,,,0.00,WeatherTracker,2013-09-01 05:49:00,
2013-08-31 22:54:00,60.0,56.7,29.97,WSW,249,0.0,0.0,89,0.00,,,0.00,WeatherTracker,2013-09-01 05:54:00,
2013-08-31 22:59:00,60.0,56.7,29.97,WSW,250,1.0,0.0,89,0.00,,,0.00,WeatherTracker,2013-09-01 05:59:00,
2013-08-31 23:04:00,60.0,56.7,29.97,SW,236,3.0,0.0,89,0.00,,,0.00,WeatherTracker,2013-09-01 06:04:00,
2013-08-31 23:09:00,60.0,56.7,29.96,WSW,241,4.0,0.0,89,0.00,,,0.00,WeatherTracker,2013-09-01 06:09:00,
2013-08-31 23:14:00,60.0,57.1,29.96,WSW,242,2.0,0.0,90,0.00,,,0.00,WeatherTracker,2013-09-01 06:14:00,
2013-08-31 23:19:00,59.9,57.0,29.96,SW,229,3.0,0.0,90,0.00,,,0.00,WeatherTracker,2013-09-01 06:19:00,
2013-08-31 23:24:00,59.9,57.0,29.96,SW,218,0.0,0.0,90,0.00,,,0.00,WeatherTracker,2013-09-01 06:24:00,
2013-08-31 23:30:00,60.0,57.1,29.96,SSE,167,1.0,0.0,90,0.00,,,0.00,WeatherTracker,2013-09-01 06:30:00,
2013-08-31 23:35:00,60.1,57.2,29.96,SW,214,0.0,0.0,90,0.00,,,0.00,WeatherTracker,2013-09-01 06:35:00,
2013-08-31 23:40:00,60.2,57.3,29.96,South,181,2.0,0.0,90,0.00,,,0.00,WeatherTracker,2013-09-01 06:40:00,
2013-08-31 23:45:00,60.2,57.3,29.96,WSW,246,2.0,0.0,90,0.00,,,0.00,WeatherTracker,2013-09-01 06:45:00,
2013-08-31 23:50:00,60.3,57.4,29.96,SSW,192,0.0,0.0,90,0.00,,,0.00,WeatherTracker,2013-09-01 06:50:00,
2013-08-31 23:55:00,60.3,57.4,29.96,SSW,192,0.0,0.0,90,0.00,,,0.00,WeatherTracker,2013-09-01 06:55:00,